sensor_id;sensor_type;location;lat;lon;timestamp;P1;durP1;ratioP1;P2;durP2;ratioP2
75655;SDS011;64252;51.094;13.714;2023-05-23T00:01:35;5.40;;;3.60;;
75655;SDS011;64252;51.094;13.714;2023-05-23T00:04:04;6.10;;;3.10;;
75655;SDS011;64252;51.094;13.714;2023-05-23T00:08:56;7.40;;;2.80;;
75655;SDS011;64252;51.094;13.714;2023-05-23T00:11:22;7.32;;;3.20;;
75655;SDS011;64252;51.094;13.714;2023-05-23T00:13:54;5.80;;;2.85;;
75655;SDS011;64252;51.094;13.714;2023-05-23T00:16:21;6.43;;;2.95;;
75655;SDS011;64252;51.094;13.714;2023-05-23T00:18:47;6.30;;;3.50;;
75655;SDS011;64252;51.094;13.714;2023-05-23T00:21:15;6.25;;;3.47;;
75655;SDS011;64252;51.094;13.714;2023-05-23T00:23:44;7.20;;;3.88;;
75655;SDS011;64252;51.094;13.714;2023-05-23T00:26:10;5.90;;;3.28;;
75655;SDS011;64252;51.094;13.714;2023-05-23T00:28:39;7.38;;;3.78;;
75655;SDS011;64252;51.094;13.714;2023-05-23T00:31:04;9.48;;;4.03;;
75655;SDS011;64252;51.094;13.714;2023-05-23T00:33:30;9.43;;;4.63;;
75655;SDS011;64252;51.094;13.714;2023-05-23T00:35:58;10.27;;;5.13;;
75655;SDS011;64252;51.094;13.714;2023-05-23T00:38:25;8.48;;;4.75;;
75655;SDS011;64252;51.094;13.714;2023-05-23T00:40:52;12.57;;;4.40;;
75655;SDS011;64252;51.094;13.714;2023-05-23T00:43:18;13.40;;;5.38;;
75655;SDS011;64252;51.094;13.714;2023-05-23T00:45:47;9.77;;;5.53;;
75655;SDS011;64252;51.094;13.714;2023-05-23T00:48:13;11.40;;;5.30;;
75655;SDS011;64252;51.094;13.714;2023-05-23T00:50:40;10.73;;;5.70;;
75655;SDS011;64252;51.094;13.714;2023-05-23T00:53:06;10.15;;;5.78;;
75655;SDS011;64252;51.094;13.714;2023-05-23T00:55:31;13.05;;;6.78;;
75655;SDS011;64252;51.094;13.714;2023-05-23T00:57:57;11.77;;;6.28;;
75655;SDS011;64252;51.094;13.714;2023-05-23T01:00:23;20.10;;;8.57;;
75655;SDS011;64252;51.094;13.714;2023-05-23T01:02:50;14.65;;;7.43;;
75655;SDS011;64252;51.094;13.714;2023-05-23T01:05:17;18.65;;;7.90;;
75655;SDS011;64252;51.094;13.714;2023-05-23T01:07:47;15.48;;;7.43;;
75655;SDS011;64252;51.094;13.714;2023-05-23T01:10:14;14.93;;;7.75;;
75655;SDS011;64252;51.094;13.714;2023-05-23T01:15:22;16.75;;;6.43;;
75655;SDS011;64252;51.094;13.714;2023-05-23T01:29:03;16.88;;;8.75;;
75655;SDS011;64252;51.094;13.714;2023-05-23T01:31:43;13.00;;;8.43;;
75655;SDS011;64252;51.094;13.714;2023-05-23T01:34:11;15.20;;;9.10;;
75655;SDS011;64252;51.094;13.714;2023-05-23T01:36:41;15.93;;;7.75;;
75655;SDS011;64252;51.094;13.714;2023-05-23T01:39:08;15.80;;;8.77;;
75655;SDS011;64252;51.094;13.714;2023-05-23T01:41:34;17.65;;;9.20;;
75655;SDS011;64252;51.094;13.714;2023-05-23T01:44:00;16.38;;;10.40;;
75655;SDS011;64252;51.094;13.714;2023-05-23T01:46:27;18.02;;;9.75;;
75655;SDS011;64252;51.094;13.714;2023-05-23T01:48:54;16.45;;;9.63;;
75655;SDS011;64252;51.094;13.714;2023-05-23T01:51:21;19.10;;;9.45;;
75655;SDS011;64252;51.094;13.714;2023-05-23T01:53:48;15.75;;;8.52;;
75655;SDS011;64252;51.094;13.714;2023-05-23T01:56:15;14.48;;;8.48;;
75655;SDS011;64252;51.094;13.714;2023-05-23T01:58:40;15.55;;;8.40;;
75655;SDS011;64252;51.094;13.714;2023-05-23T02:01:07;14.95;;;8.75;;
75655;SDS011;64252;51.094;13.714;2023-05-23T02:03:35;14.90;;;8.68;;
75655;SDS011;64252;51.094;13.714;2023-05-23T02:06:00;14.90;;;8.23;;
75655;SDS011;64252;51.094;13.714;2023-05-23T02:08:26;15.25;;;7.70;;
75655;SDS011;64252;51.094;13.714;2023-05-23T02:10:51;14.48;;;7.15;;
75655;SDS011;64252;51.094;13.714;2023-05-23T02:13:18;14.38;;;7.22;;
75655;SDS011;64252;51.094;13.714;2023-05-23T02:15:44;13.30;;;7.50;;
75655;SDS011;64252;51.094;13.714;2023-05-23T02:18:10;15.23;;;7.90;;
75655;SDS011;64252;51.094;13.714;2023-05-23T02:20:38;15.00;;;8.57;;
75655;SDS011;64252;51.094;13.714;2023-05-23T02:23:04;11.55;;;7.32;;
75655;SDS011;64252;51.094;13.714;2023-05-23T02:25:30;14.45;;;7.65;;
75655;SDS011;64252;51.094;13.714;2023-05-23T02:27:56;12.52;;;7.13;;
75655;SDS011;64252;51.094;13.714;2023-05-23T02:30:21;11.43;;;7.10;;
75655;SDS011;64252;51.094;13.714;2023-05-23T02:32:48;11.75;;;7.32;;
75655;SDS011;64252;51.094;13.714;2023-05-23T02:35:13;12.35;;;7.05;;
75655;SDS011;64252;51.094;13.714;2023-05-23T02:37:39;9.82;;;6.93;;
75655;SDS011;64252;51.094;13.714;2023-05-23T02:40:05;10.98;;;7.68;;
75655;SDS011;64252;51.094;13.714;2023-05-23T02:42:35;13.95;;;6.70;;
75655;SDS011;64252;51.094;13.714;2023-05-23T02:45:01;10.00;;;6.15;;
75655;SDS011;64252;51.094;13.714;2023-05-23T02:47:29;11.48;;;7.18;;
75655;SDS011;64252;51.094;13.714;2023-05-23T02:49:56;10.20;;;7.05;;
75655;SDS011;64252;51.094;13.714;2023-05-23T02:52:22;10.15;;;6.68;;
75655;SDS011;64252;51.094;13.714;2023-05-23T02:54:47;10.48;;;6.70;;
75655;SDS011;64252;51.094;13.714;2023-05-23T02:57:13;10.32;;;5.95;;
75655;SDS011;64252;51.094;13.714;2023-05-23T02:59:40;11.88;;;7.30;;
75655;SDS011;64252;51.094;13.714;2023-05-23T03:02:05;11.75;;;7.28;;
75655;SDS011;64252;51.094;13.714;2023-05-23T03:04:31;9.57;;;6.18;;
75655;SDS011;64252;51.094;13.714;2023-05-23T03:06:57;11.38;;;5.90;;
75655;SDS011;64252;51.094;13.714;2023-05-23T03:09:23;10.23;;;6.60;;
75655;SDS011;64252;51.094;13.714;2023-05-23T03:11:50;10.13;;;6.63;;
75655;SDS011;64252;51.094;13.714;2023-05-23T03:14:16;8.95;;;5.97;;
75655;SDS011;64252;51.094;13.714;2023-05-23T03:16:42;13.13;;;6.03;;
75655;SDS011;64252;51.094;13.714;2023-05-23T03:19:08;10.07;;;6.03;;
75655;SDS011;64252;51.094;13.714;2023-05-23T03:21:33;8.45;;;5.88;;
75655;SDS011;64252;51.094;13.714;2023-05-23T03:24:00;11.32;;;6.70;;
75655;SDS011;64252;51.094;13.714;2023-05-23T03:26:26;8.38;;;5.25;;
75655;SDS011;64252;51.094;13.714;2023-05-23T03:28:51;8.30;;;5.05;;
75655;SDS011;64252;51.094;13.714;2023-05-23T03:31:18;7.07;;;5.00;;
75655;SDS011;64252;51.094;13.714;2023-05-23T03:33:43;10.13;;;5.63;;
75655;SDS011;64252;51.094;13.714;2023-05-23T03:36:09;9.73;;;5.75;;
75655;SDS011;64252;51.094;13.714;2023-05-23T03:38:35;9.10;;;5.40;;
75655;SDS011;64252;51.094;13.714;2023-05-23T03:41:00;10.32;;;5.90;;
75655;SDS011;64252;51.094;13.714;2023-05-23T03:43:26;10.40;;;5.78;;
75655;SDS011;64252;51.094;13.714;2023-05-23T03:45:52;10.00;;;5.65;;
75655;SDS011;64252;51.094;13.714;2023-05-23T03:48:18;8.90;;;5.90;;
75655;SDS011;64252;51.094;13.714;2023-05-23T03:50:45;9.15;;;5.85;;
75655;SDS011;64252;51.094;13.714;2023-05-23T03:53:11;9.48;;;6.10;;
75655;SDS011;64252;51.094;13.714;2023-05-23T03:55:37;9.38;;;5.57;;
75655;SDS011;64252;51.094;13.714;2023-05-23T03:58:04;10.90;;;6.22;;
75655;SDS011;64252;51.094;13.714;2023-05-23T04:00:30;9.50;;;5.47;;
75655;SDS011;64252;51.094;13.714;2023-05-23T04:02:57;7.40;;;5.53;;
75655;SDS011;64252;51.094;13.714;2023-05-23T04:05:23;11.63;;;6.55;;
75655;SDS011;64252;51.094;13.714;2023-05-23T04:07:49;10.35;;;6.93;;
75655;SDS011;64252;51.094;13.714;2023-05-23T04:10:16;8.55;;;6.30;;
75655;SDS011;64252;51.094;13.714;2023-05-23T04:12:43;10.68;;;6.65;;
75655;SDS011;64252;51.094;13.714;2023-05-23T04:15:13;9.68;;;5.72;;
75655;SDS011;64252;51.094;13.714;2023-05-23T04:17:50;8.45;;;5.53;;
75655;SDS011;64252;51.094;13.714;2023-05-23T04:20:16;8.98;;;5.82;;
75655;SDS011;64252;51.094;13.714;2023-05-23T04:22:42;9.02;;;6.13;;
75655;SDS011;64252;51.094;13.714;2023-05-23T04:25:08;9.32;;;5.68;;
75655;SDS011;64252;51.094;13.714;2023-05-23T04:27:39;10.38;;;6.82;;
75655;SDS011;64252;51.094;13.714;2023-05-23T04:30:06;13.07;;;6.35;;
75655;SDS011;64252;51.094;13.714;2023-05-23T04:32:35;9.77;;;6.78;;
75655;SDS011;64252;51.094;13.714;2023-05-23T04:35:02;10.20;;;6.22;;
75655;SDS011;64252;51.094;13.714;2023-05-23T04:37:31;10.63;;;6.30;;
75655;SDS011;64252;51.094;13.714;2023-05-23T04:40:00;10.82;;;6.57;;
75655;SDS011;64252;51.094;13.714;2023-05-23T04:42:39;8.82;;;6.03;;
75655;SDS011;64252;51.094;13.714;2023-05-23T04:45:29;10.13;;;6.85;;
75655;SDS011;64252;51.094;13.714;2023-05-23T04:48:04;8.73;;;5.88;;
75655;SDS011;64252;51.094;13.714;2023-05-23T04:50:40;10.60;;;7.03;;
75655;SDS011;64252;51.094;13.714;2023-05-23T04:53:07;9.73;;;6.32;;
75655;SDS011;64252;51.094;13.714;2023-05-23T04:55:34;11.20;;;6.75;;
75655;SDS011;64252;51.094;13.714;2023-05-23T04:58:00;10.25;;;6.15;;
75655;SDS011;64252;51.094;13.714;2023-05-23T05:00:27;11.45;;;7.35;;
75655;SDS011;64252;51.094;13.714;2023-05-23T05:02:55;11.27;;;8.18;;
75655;SDS011;64252;51.094;13.714;2023-05-23T05:05:27;12.07;;;7.82;;
75655;SDS011;64252;51.094;13.714;2023-05-23T05:07:53;13.18;;;7.75;;
75655;SDS011;64252;51.094;13.714;2023-05-23T05:10:19;9.80;;;7.03;;
75655;SDS011;64252;51.094;13.714;2023-05-23T05:12:45;11.63;;;7.40;;
75655;SDS011;64252;51.094;13.714;2023-05-23T05:15:14;10.88;;;6.60;;
75655;SDS011;64252;51.094;13.714;2023-05-23T05:17:45;10.55;;;6.88;;
75655;SDS011;64252;51.094;13.714;2023-05-23T05:20:12;10.77;;;6.82;;
75655;SDS011;64252;51.094;13.714;2023-05-23T05:22:38;9.35;;;6.13;;
75655;SDS011;64252;51.094;13.714;2023-05-23T05:25:05;10.63;;;6.60;;
75655;SDS011;64252;51.094;13.714;2023-05-23T05:27:33;9.30;;;6.70;;
75655;SDS011;64252;51.094;13.714;2023-05-23T05:29:59;10.10;;;6.90;;
75655;SDS011;64252;51.094;13.714;2023-05-23T05:32:31;10.60;;;6.93;;
75655;SDS011;64252;51.094;13.714;2023-05-23T05:34:59;10.27;;;6.55;;
75655;SDS011;64252;51.094;13.714;2023-05-23T05:37:26;10.75;;;7.00;;
75655;SDS011;64252;51.094;13.714;2023-05-23T05:39:53;10.73;;;6.60;;
75655;SDS011;64252;51.094;13.714;2023-05-23T05:42:19;8.98;;;6.20;;
75655;SDS011;64252;51.094;13.714;2023-05-23T05:44:46;9.57;;;7.53;;
75655;SDS011;64252;51.094;13.714;2023-05-23T05:47:13;13.98;;;7.63;;
75655;SDS011;64252;51.094;13.714;2023-05-23T05:49:39;9.48;;;6.47;;
75655;SDS011;64252;51.094;13.714;2023-05-23T05:52:08;10.82;;;6.90;;
75655;SDS011;64252;51.094;13.714;2023-05-23T05:54:35;12.05;;;7.53;;
75655;SDS011;64252;51.094;13.714;2023-05-23T05:57:01;12.40;;;8.52;;
75655;SDS011;64252;51.094;13.714;2023-05-23T05:59:27;10.77;;;7.32;;
75655;SDS011;64252;51.094;13.714;2023-05-23T06:01:53;9.60;;;6.95;;
75655;SDS011;64252;51.094;13.714;2023-05-23T06:04:20;11.13;;;7.50;;
75655;SDS011;64252;51.094;13.714;2023-05-23T06:06:47;11.57;;;7.70;;
75655;SDS011;64252;51.094;13.714;2023-05-23T06:09:12;13.65;;;8.13;;
75655;SDS011;64252;51.094;13.714;2023-05-23T06:11:38;10.77;;;8.75;;
75655;SDS011;64252;51.094;13.714;2023-05-23T06:14:06;9.50;;;7.53;;
75655;SDS011;64252;51.094;13.714;2023-05-23T06:16:34;14.15;;;8.90;;
75655;SDS011;64252;51.094;13.714;2023-05-23T06:19:00;12.73;;;9.20;;
75655;SDS011;64252;51.094;13.714;2023-05-23T06:21:27;10.95;;;8.90;;
75655;SDS011;64252;51.094;13.714;2023-05-23T06:23:53;13.45;;;9.13;;
75655;SDS011;64252;51.094;13.714;2023-05-23T06:26:19;12.25;;;9.10;;
75655;SDS011;64252;51.094;13.714;2023-05-23T06:28:44;13.65;;;10.35;;
75655;SDS011;64252;51.094;13.714;2023-05-23T06:31:10;12.73;;;9.27;;
75655;SDS011;64252;51.094;13.714;2023-05-23T06:33:36;13.73;;;8.25;;
75655;SDS011;64252;51.094;13.714;2023-05-23T06:36:01;14.00;;;9.90;;
75655;SDS011;64252;51.094;13.714;2023-05-23T06:38:30;15.25;;;9.75;;
75655;SDS011;64252;51.094;13.714;2023-05-23T06:40:59;14.57;;;9.35;;
75655;SDS011;64252;51.094;13.714;2023-05-23T06:43:26;11.38;;;8.80;;
75655;SDS011;64252;51.094;13.714;2023-05-23T06:45:58;15.52;;;9.52;;
75655;SDS011;64252;51.094;13.714;2023-05-23T06:48:26;12.50;;;9.95;;
75655;SDS011;64252;51.094;13.714;2023-05-23T06:50:52;12.57;;;9.00;;
75655;SDS011;64252;51.094;13.714;2023-05-23T06:53:19;15.75;;;9.77;;
75655;SDS011;64252;51.094;13.714;2023-05-23T06:55:47;12.73;;;10.82;;
75655;SDS011;64252;51.094;13.714;2023-05-23T06:58:15;21.13;;;10.63;;
75655;SDS011;64252;51.094;13.714;2023-05-23T07:00:41;13.82;;;10.57;;
75655;SDS011;64252;51.094;13.714;2023-05-23T07:03:16;12.05;;;8.27;;
75655;SDS011;64252;51.094;13.714;2023-05-23T07:05:42;13.45;;;9.02;;
75655;SDS011;64252;51.094;13.714;2023-05-23T07:08:09;14.40;;;8.73;;
75655;SDS011;64252;51.094;13.714;2023-05-23T07:10:35;11.18;;;8.63;;
75655;SDS011;64252;51.094;13.714;2023-05-23T07:13:14;14.75;;;9.43;;
75655;SDS011;64252;51.094;13.714;2023-05-23T07:15:40;13.27;;;8.32;;
75655;SDS011;64252;51.094;13.714;2023-05-23T07:18:09;11.15;;;8.43;;
75655;SDS011;64252;51.094;13.714;2023-05-23T07:20:36;13.18;;;7.95;;
75655;SDS011;64252;51.094;13.714;2023-05-23T07:23:09;10.23;;;7.68;;
75655;SDS011;64252;51.094;13.714;2023-05-23T07:25:36;13.27;;;9.55;;
75655;SDS011;64252;51.094;13.714;2023-05-23T07:28:04;12.57;;;8.73;;
75655;SDS011;64252;51.094;13.714;2023-05-23T07:30:29;10.85;;;8.07;;
75655;SDS011;64252;51.094;13.714;2023-05-23T07:32:57;11.02;;;7.07;;
75655;SDS011;64252;51.094;13.714;2023-05-23T07:35:23;11.23;;;7.70;;
75655;SDS011;64252;51.094;13.714;2023-05-23T07:37:51;12.18;;;6.97;;
75655;SDS011;64252;51.094;13.714;2023-05-23T07:40:17;10.43;;;6.80;;
75655;SDS011;64252;51.094;13.714;2023-05-23T07:42:43;11.07;;;7.03;;
75655;SDS011;64252;51.094;13.714;2023-05-23T07:45:09;10.40;;;6.97;;
75655;SDS011;64252;51.094;13.714;2023-05-23T07:47:38;11.73;;;6.82;;
75655;SDS011;64252;51.094;13.714;2023-05-23T07:50:04;8.68;;;6.97;;
75655;SDS011;64252;51.094;13.714;2023-05-23T07:52:30;9.88;;;7.03;;
75655;SDS011;64252;51.094;13.714;2023-05-23T07:54:57;9.75;;;6.13;;
75655;SDS011;64252;51.094;13.714;2023-05-23T07:59:52;8.93;;;6.47;;
75655;SDS011;64252;51.094;13.714;2023-05-23T08:02:18;9.85;;;6.10;;
75655;SDS011;64252;51.094;13.714;2023-05-23T08:04:45;11.38;;;6.47;;
75655;SDS011;64252;51.094;13.714;2023-05-23T08:09:44;8.30;;;6.43;;
75655;SDS011;64252;51.094;13.714;2023-05-23T08:12:13;8.65;;;6.22;;
75655;SDS011;64252;51.094;13.714;2023-05-23T08:14:39;11.00;;;6.55;;
75655;SDS011;64252;51.094;13.714;2023-05-23T08:17:15;8.57;;;6.10;;
75655;SDS011;64252;51.094;13.714;2023-05-23T08:19:41;10.00;;;6.57;;
75655;SDS011;64252;51.094;13.714;2023-05-23T08:22:06;8.48;;;6.57;;
75655;SDS011;64252;51.094;13.714;2023-05-23T08:24:32;10.63;;;7.30;;
75655;SDS011;64252;51.094;13.714;2023-05-23T08:26:58;9.68;;;6.97;;
75655;SDS011;64252;51.094;13.714;2023-05-23T08:29:25;10.35;;;7.05;;
75655;SDS011;64252;51.094;13.714;2023-05-23T08:31:50;10.73;;;7.00;;
75655;SDS011;64252;51.094;13.714;2023-05-23T08:34:17;9.88;;;8.10;;
75655;SDS011;64252;51.094;13.714;2023-05-23T08:36:43;11.98;;;8.00;;
75655;SDS011;64252;51.094;13.714;2023-05-23T08:39:15;10.60;;;7.40;;
75655;SDS011;64252;51.094;13.714;2023-05-23T08:41:48;9.95;;;6.90;;
75655;SDS011;64252;51.094;13.714;2023-05-23T08:44:15;10.27;;;7.07;;
75655;SDS011;64252;51.094;13.714;2023-05-23T08:46:48;9.95;;;7.13;;
75655;SDS011;64252;51.094;13.714;2023-05-23T08:49:44;9.80;;;6.97;;
75655;SDS011;64252;51.094;13.714;2023-05-23T08:52:10;10.73;;;6.40;;
75655;SDS011;64252;51.094;13.714;2023-05-23T08:54:39;8.52;;;5.90;;
75655;SDS011;64252;51.094;13.714;2023-05-23T08:57:06;7.80;;;5.97;;
75655;SDS011;64252;51.094;13.714;2023-05-23T08:59:38;9.23;;;6.20;;
75655;SDS011;64252;51.094;13.714;2023-05-23T09:02:05;14.90;;;9.48;;
75655;SDS011;64252;51.094;13.714;2023-05-23T09:04:35;9.85;;;6.57;;
75655;SDS011;64252;51.094;13.714;2023-05-23T09:07:06;8.13;;;6.43;;
75655;SDS011;64252;51.094;13.714;2023-05-23T09:09:34;10.10;;;6.88;;
75655;SDS011;64252;51.094;13.714;2023-05-23T09:12:02;10.93;;;8.23;;
75655;SDS011;64252;51.094;13.714;2023-05-23T09:14:29;11.95;;;8.80;;
75655;SDS011;64252;51.094;13.714;2023-05-23T09:17:04;12.40;;;8.98;;
75655;SDS011;64252;51.094;13.714;2023-05-23T09:19:30;15.77;;;10.05;;
75655;SDS011;64252;51.094;13.714;2023-05-23T09:22:01;16.58;;;11.57;;
75655;SDS011;64252;51.094;13.714;2023-05-23T09:24:34;19.88;;;13.80;;
75655;SDS011;64252;51.094;13.714;2023-05-23T09:27:03;17.80;;;13.55;;
75655;SDS011;64252;51.094;13.714;2023-05-23T09:29:30;17.35;;;13.60;;
75655;SDS011;64252;51.094;13.714;2023-05-23T09:31:58;20.75;;;14.48;;
75655;SDS011;64252;51.094;13.714;2023-05-23T09:34:34;20.23;;;14.93;;
75655;SDS011;64252;51.094;13.714;2023-05-23T09:37:00;20.73;;;15.18;;
75655;SDS011;64252;51.094;13.714;2023-05-23T09:39:29;22.70;;;15.82;;
75655;SDS011;64252;51.094;13.714;2023-05-23T09:41:57;24.70;;;16.77;;
75655;SDS011;64252;51.094;13.714;2023-05-23T09:44:23;24.35;;;17.15;;
75655;SDS011;64252;51.094;13.714;2023-05-23T09:46:49;25.15;;;17.88;;
75655;SDS011;64252;51.094;13.714;2023-05-23T09:49:19;23.98;;;16.13;;
75655;SDS011;64252;51.094;13.714;2023-05-23T09:51:57;25.30;;;16.35;;
75655;SDS011;64252;51.094;13.714;2023-05-23T09:54:23;23.90;;;14.57;;
75655;SDS011;64252;51.094;13.714;2023-05-23T09:56:49;22.45;;;14.13;;
75655;SDS011;64252;51.094;13.714;2023-05-23T09:59:17;24.60;;;12.82;;
75655;SDS011;64252;51.094;13.714;2023-05-23T10:01:48;18.17;;;11.85;;
75655;SDS011;64252;51.094;13.714;2023-05-23T10:04:18;17.52;;;11.68;;
75655;SDS011;64252;51.094;13.714;2023-05-23T10:06:49;17.70;;;10.90;;
75655;SDS011;64252;51.094;13.714;2023-05-23T10:09:18;17.65;;;10.25;;
75655;SDS011;64252;51.094;13.714;2023-05-23T10:12:12;19.25;;;12.27;;
75655;SDS011;64252;51.094;13.714;2023-05-23T10:14:45;15.65;;;10.20;;
75655;SDS011;64252;51.094;13.714;2023-05-23T10:17:20;13.60;;;8.73;;
75655;SDS011;64252;51.094;13.714;2023-05-23T10:19:57;12.10;;;8.02;;
75655;SDS011;64252;51.094;13.714;2023-05-23T10:22:26;13.02;;;8.23;;
75655;SDS011;64252;51.094;13.714;2023-05-23T10:24:52;14.98;;;8.07;;
75655;SDS011;64252;51.094;13.714;2023-05-23T10:27:18;11.10;;;7.60;;
75655;SDS011;64252;51.094;13.714;2023-05-23T10:29:44;10.18;;;6.40;;
75655;SDS011;64252;51.094;13.714;2023-05-23T10:32:09;9.70;;;5.95;;
75655;SDS011;64252;51.094;13.714;2023-05-23T10:42:18;11.30;;;6.95;;
75655;SDS011;64252;51.094;13.714;2023-05-23T10:44:52;12.55;;;6.47;;
75655;SDS011;64252;51.094;13.714;2023-05-23T10:47:26;10.00;;;6.20;;
75655;SDS011;64252;51.094;13.714;2023-05-23T10:49:54;9.88;;;5.97;;
75655;SDS011;64252;51.094;13.714;2023-05-23T10:52:21;8.38;;;5.47;;
75655;SDS011;64252;51.094;13.714;2023-05-23T10:54:51;11.75;;;6.93;;
75655;SDS011;64252;51.094;13.714;2023-05-23T10:57:19;11.65;;;6.03;;
75655;SDS011;64252;51.094;13.714;2023-05-23T10:59:51;13.75;;;6.57;;
75655;SDS011;64252;51.094;13.714;2023-05-23T11:02:26;12.40;;;5.68;;
75655;SDS011;64252;51.094;13.714;2023-05-23T11:08:05;8.95;;;5.65;;
75655;SDS011;64252;51.094;13.714;2023-05-23T11:10:53;9.50;;;5.20;;
75655;SDS011;64252;51.094;13.714;2023-05-23T11:15:48;10.68;;;6.32;;
75655;SDS011;64252;51.094;13.714;2023-05-23T11:18:25;10.95;;;5.32;;
75655;SDS011;64252;51.094;13.714;2023-05-23T11:20:52;9.02;;;5.47;;
75655;SDS011;64252;51.094;13.714;2023-05-23T11:23:19;7.35;;;4.78;;
75655;SDS011;64252;51.094;13.714;2023-05-23T11:25:49;7.68;;;5.30;;
75655;SDS011;64252;51.094;13.714;2023-05-23T11:28:18;9.40;;;5.43;;
75655;SDS011;64252;51.094;13.714;2023-05-23T11:30:47;9.25;;;5.53;;
75655;SDS011;64252;51.094;13.714;2023-05-23T11:33:14;10.20;;;5.68;;
75655;SDS011;64252;51.094;13.714;2023-05-23T11:35:40;9.75;;;5.60;;
75655;SDS011;64252;51.094;13.714;2023-05-23T11:38:16;10.27;;;5.32;;
75655;SDS011;64252;51.094;13.714;2023-05-23T11:40:44;7.55;;;4.57;;
75655;SDS011;64252;51.094;13.714;2023-05-23T11:43:15;7.68;;;4.55;;
75655;SDS011;64252;51.094;13.714;2023-05-23T11:45:42;7.72;;;4.88;;
75655;SDS011;64252;51.094;13.714;2023-05-23T11:48:09;6.85;;;4.82;;
75655;SDS011;64252;51.094;13.714;2023-05-23T11:50:49;10.88;;;5.22;;
75655;SDS011;64252;51.094;13.714;2023-05-23T11:53:18;10.25;;;5.13;;
75655;SDS011;64252;51.094;13.714;2023-05-23T11:55:55;7.78;;;5.45;;
75655;SDS011;64252;51.094;13.714;2023-05-23T11:58:27;8.68;;;5.30;;
75655;SDS011;64252;51.094;13.714;2023-05-23T12:01:01;9.10;;;5.18;;
75655;SDS011;64252;51.094;13.714;2023-05-23T12:03:28;7.20;;;5.00;;
75655;SDS011;64252;51.094;13.714;2023-05-23T12:05:54;8.07;;;5.53;;
75655;SDS011;64252;51.094;13.714;2023-05-23T12:08:20;11.73;;;6.07;;
75655;SDS011;64252;51.094;13.714;2023-05-23T12:10:50;9.93;;;5.82;;
75655;SDS011;64252;51.094;13.714;2023-05-23T12:13:17;9.77;;;6.18;;
75655;SDS011;64252;51.094;13.714;2023-05-23T12:15:44;9.27;;;5.90;;
75655;SDS011;64252;51.094;13.714;2023-05-23T12:18:12;9.80;;;6.15;;
75655;SDS011;64252;51.094;13.714;2023-05-23T12:20:37;8.48;;;5.70;;
75655;SDS011;64252;51.094;13.714;2023-05-23T12:23:05;11.95;;;6.57;;
75655;SDS011;64252;51.094;13.714;2023-05-23T12:25:40;9.20;;;6.22;;
75655;SDS011;64252;51.094;13.714;2023-05-23T12:28:06;9.38;;;5.60;;
75655;SDS011;64252;51.094;13.714;2023-05-23T12:30:42;9.73;;;6.72;;
75655;SDS011;64252;51.094;13.714;2023-05-23T12:33:08;9.23;;;6.38;;
75655;SDS011;64252;51.094;13.714;2023-05-23T12:35:35;10.35;;;6.47;;
75655;SDS011;64252;51.094;13.714;2023-05-23T12:38:01;9.27;;;6.45;;
75655;SDS011;64252;51.094;13.714;2023-05-23T12:40:27;9.13;;;5.53;;
75655;SDS011;64252;51.094;13.714;2023-05-23T12:42:53;8.60;;;5.78;;
75655;SDS011;64252;51.094;13.714;2023-05-23T12:45:28;8.18;;;4.93;;
75655;SDS011;64252;51.094;13.714;2023-05-23T12:47:57;7.30;;;4.50;;
75655;SDS011;64252;51.094;13.714;2023-05-23T12:50:22;7.90;;;4.32;;
75655;SDS011;64252;51.094;13.714;2023-05-23T12:52:49;6.50;;;4.28;;
75655;SDS011;64252;51.094;13.714;2023-05-23T12:55:15;8.27;;;4.15;;
75655;SDS011;64252;51.094;13.714;2023-05-23T12:57:42;9.48;;;4.57;;
75655;SDS011;64252;51.094;13.714;2023-05-23T13:00:08;6.32;;;4.20;;
75655;SDS011;64252;51.094;13.714;2023-05-23T13:02:36;8.63;;;4.28;;
75655;SDS011;64252;51.094;13.714;2023-05-23T13:05:04;8.50;;;3.72;;
75655;SDS011;64252;51.094;13.714;2023-05-23T13:07:30;5.38;;;3.58;;
75655;SDS011;64252;51.094;13.714;2023-05-23T13:09:56;5.65;;;3.33;;
75655;SDS011;64252;51.094;13.714;2023-05-23T13:12:21;5.35;;;3.42;;
75655;SDS011;64252;51.094;13.714;2023-05-23T13:14:48;5.60;;;3.28;;
75655;SDS011;64252;51.094;13.714;2023-05-23T13:17:14;4.63;;;2.92;;
75655;SDS011;64252;51.094;13.714;2023-05-23T13:19:39;5.47;;;2.47;;
75655;SDS011;64252;51.094;13.714;2023-05-23T13:22:05;4.97;;;2.70;;
75655;SDS011;64252;51.094;13.714;2023-05-23T13:24:37;7.85;;;2.40;;
75655;SDS011;64252;51.094;13.714;2023-05-23T13:27:04;4.65;;;2.25;;
75655;SDS011;64252;51.094;13.714;2023-05-23T13:29:30;5.18;;;2.70;;
75655;SDS011;64252;51.094;13.714;2023-05-23T13:31:56;6.40;;;3.20;;
75655;SDS011;64252;51.094;13.714;2023-05-23T13:34:22;5.57;;;3.63;;
75655;SDS011;64252;51.094;13.714;2023-05-23T13:36:48;5.07;;;3.13;;
75655;SDS011;64252;51.094;13.714;2023-05-23T13:39:14;6.38;;;3.28;;
75655;SDS011;64252;51.094;13.714;2023-05-23T13:41:39;6.82;;;3.50;;
75655;SDS011;64252;51.094;13.714;2023-05-23T13:44:05;6.25;;;3.85;;
75655;SDS011;64252;51.094;13.714;2023-05-23T13:46:30;4.65;;;3.17;;
75655;SDS011;64252;51.094;13.714;2023-05-23T13:48:56;6.80;;;3.50;;
75655;SDS011;64252;51.094;13.714;2023-05-23T13:51:21;7.13;;;3.70;;
75655;SDS011;64252;51.094;13.714;2023-05-23T13:53:47;4.90;;;2.92;;
75655;SDS011;64252;51.094;13.714;2023-05-23T13:56:14;5.80;;;3.08;;
75655;SDS011;64252;51.094;13.714;2023-05-23T13:58:40;4.15;;;2.47;;
75655;SDS011;64252;51.094;13.714;2023-05-23T14:01:07;6.10;;;4.10;;
75655;SDS011;64252;51.094;13.714;2023-05-23T14:03:33;5.32;;;3.13;;
75655;SDS011;64252;51.094;13.714;2023-05-23T14:05:58;5.55;;;2.95;;
75655;SDS011;64252;51.094;13.714;2023-05-23T14:08:24;5.85;;;3.03;;
75655;SDS011;64252;51.094;13.714;2023-05-23T14:10:50;5.28;;;2.63;;
75655;SDS011;64252;51.094;13.714;2023-05-23T14:13:15;6.60;;;2.95;;
75655;SDS011;64252;51.094;13.714;2023-05-23T14:15:41;4.35;;;2.72;;
75655;SDS011;64252;51.094;13.714;2023-05-23T14:18:06;4.47;;;2.92;;
75655;SDS011;64252;51.094;13.714;2023-05-23T14:20:32;7.18;;;2.67;;
75655;SDS011;64252;51.094;13.714;2023-05-23T14:22:58;5.40;;;2.67;;
75655;SDS011;64252;51.094;13.714;2023-05-23T14:25:23;6.85;;;3.05;;
75655;SDS011;64252;51.094;13.714;2023-05-23T14:27:49;8.55;;;4.38;;
75655;SDS011;64252;51.094;13.714;2023-05-23T14:30:16;3.80;;;2.10;;
75655;SDS011;64252;51.094;13.714;2023-05-23T14:32:42;3.83;;;1.63;;
75655;SDS011;64252;51.094;13.714;2023-05-23T14:35:09;3.88;;;1.80;;
75655;SDS011;64252;51.094;13.714;2023-05-23T14:37:36;5.07;;;1.90;;
75655;SDS011;64252;51.094;13.714;2023-05-23T14:40:04;4.00;;;2.35;;
75655;SDS011;64252;51.094;13.714;2023-05-23T14:42:32;5.53;;;1.92;;
75655;SDS011;64252;51.094;13.714;2023-05-23T14:44:58;4.18;;;2.03;;
75655;SDS011;64252;51.094;13.714;2023-05-23T14:47:25;5.97;;;2.83;;
75655;SDS011;64252;51.094;13.714;2023-05-23T14:49:51;4.88;;;3.00;;
75655;SDS011;64252;51.094;13.714;2023-05-23T14:52:16;9.02;;;3.47;;
75655;SDS011;64252;51.094;13.714;2023-05-23T14:54:42;4.47;;;3.25;;
75655;SDS011;64252;51.094;13.714;2023-05-23T14:57:08;6.57;;;4.32;;
75655;SDS011;64252;51.094;13.714;2023-05-23T14:59:34;6.05;;;3.63;;
75655;SDS011;64252;51.094;13.714;2023-05-23T15:02:04;6.32;;;3.67;;
75655;SDS011;64252;51.094;13.714;2023-05-23T15:04:32;4.85;;;3.10;;